createdAt,value
2022-09-07T00:00:40.551Z,11.45
2022-09-07T00:04:47.392Z,9.98
2022-09-07T00:08:54.224Z,12.55
2022-09-07T00:13:00.991Z,19.25
2022-09-07T00:17:07.692Z,18.10
2022-09-07T00:21:17.030Z,15.77
2022-09-07T00:25:23.792Z,14.00
2022-09-07T00:29:30.499Z,9.50
2022-09-07T00:33:37.587Z,10.20
2022-09-07T00:37:44.295Z,5.88
2022-09-07T00:41:50.989Z,10.77
2022-09-07T00:45:57.725Z,10.73
2022-09-07T00:50:23.820Z,6.85
2022-09-07T00:54:36.000Z,12.98
2022-09-07T00:58:44.163Z,8.75
2022-09-07T01:02:54.100Z,5.78
2022-09-07T01:07:01.822Z,5.80
2022-09-07T01:11:09.224Z,2.75
2022-09-07T01:15:16.082Z,3.08
2022-09-07T01:19:57.434Z,1.52
2022-09-07T01:24:38.314Z,5.73
2022-09-07T01:33:20.407Z,10.23
2022-09-07T01:37:41.151Z,3.50
2022-09-07T01:41:54.652Z,2.45
2022-09-07T01:46:05.486Z,2.58
2022-09-07T01:50:37.855Z,3.65
2022-09-07T01:54:51.819Z,2.45
2022-09-07T01:59:03.770Z,7.03
2022-09-07T02:07:23.817Z,4.88
2022-09-07T02:11:40.402Z,2.03
2022-09-07T02:15:52.897Z,3.70
2022-09-07T02:20:10.160Z,1.58
2022-09-07T02:24:28.534Z,3.70
2022-09-07T02:28:38.270Z,1.52
2022-09-07T02:32:45.196Z,3.08
2022-09-07T02:36:53.484Z,1.38
2022-09-07T02:41:02.470Z,1.40
2022-09-07T02:45:12.500Z,3.13
2022-09-07T02:49:57.238Z,1.70
2022-09-07T02:54:32.191Z,1.98
2022-09-07T02:58:45.023Z,1.65
2022-09-07T03:03:28.435Z,1.77
2022-09-07T03:07:49.078Z,4.03
2022-09-07T03:11:55.960Z,1.45
2022-09-07T03:16:02.888Z,10.45
2022-09-07T03:20:09.911Z,2.03
2022-09-07T03:24:16.813Z,2.83
2022-09-07T03:28:23.508Z,2.90
2022-09-07T03:32:35.359Z,6.30
2022-09-07T03:41:01.120Z,2.85
2022-09-07T03:45:09.160Z,1.73
2022-09-07T03:49:16.155Z,1.77
2022-09-07T03:53:22.990Z,6.93
2022-09-07T03:57:29.798Z,0.77
2022-09-07T04:01:37.049Z,1.42
2022-09-07T04:05:43.801Z,5.75
2022-09-07T04:09:51.475Z,6.38
2022-09-07T04:13:58.622Z,1.15
2022-09-07T04:18:05.407Z,1.63
2022-09-07T04:22:12.149Z,5.70
2022-09-07T04:26:21.581Z,2.10
2022-09-07T04:30:28.728Z,1.65
2022-09-07T04:34:35.494Z,2.08
2022-09-07T04:38:42.240Z,2.10
2022-09-07T04:42:49.096Z,2.08
2022-09-07T04:46:55.808Z,4.97
2022-09-07T04:51:07.066Z,2.03
2022-09-07T04:55:13.821Z,2.03
2022-09-07T04:59:20.528Z,2.97
2022-09-07T05:03:29.152Z,6.68
2022-09-07T05:07:35.848Z,2.90
2022-09-07T05:11:43.029Z,3.38
2022-09-07T05:15:49.851Z,4.60
2022-09-07T05:19:57.097Z,7.85
2022-09-07T05:24:04.375Z,8.30
2022-09-07T05:28:15.889Z,6.07
2022-09-07T05:32:25.404Z,8.75
2022-09-07T05:36:35.224Z,8.93
2022-09-07T05:40:42.096Z,11.50
2022-09-07T05:44:48.794Z,6.30
2022-09-07T05:48:55.956Z,10.32
2022-09-07T05:53:03.007Z,15.60
2022-09-07T05:57:12.236Z,9.65
2022-09-07T06:01:19.205Z,7.70
2022-09-07T06:05:25.894Z,10.43
2022-09-07T06:09:32.686Z,8.77
2022-09-07T06:13:40.076Z,8.73
2022-09-07T06:17:46.781Z,11.93
2022-09-07T06:21:53.545Z,12.80
2022-09-07T06:26:00.887Z,14.25
2022-09-07T06:30:08.144Z,17.20
2022-09-07T06:34:14.916Z,17.40
2022-09-07T06:38:21.611Z,17.08
2022-09-07T06:42:28.313Z,15.50
2022-09-07T06:51:07.866Z,18.40
2022-09-07T06:55:14.643Z,18.95
2022-09-07T06:59:21.399Z,15.20
2022-09-07T07:03:28.748Z,14.90
2022-09-07T07:07:35.474Z,13.77
2022-09-07T07:11:43.643Z,15.40
2022-09-07T07:15:51.464Z,19.17
2022-09-07T07:19:58.237Z,14.40
2022-09-07T07:24:08.209Z,18.38
2022-09-07T07:32:42.618Z,13.82
2022-09-07T07:36:49.563Z,13.40
2022-09-07T07:49:50.022Z,15.85
2022-09-07T07:53:57.048Z,15.63
2022-09-07T07:58:03.862Z,13.43
2022-09-07T08:02:15.128Z,12.40
2022-09-07T08:06:22.013Z,13.02
2022-09-07T08:10:29.619Z,13.45
2022-09-07T08:14:40.701Z,12.85
2022-09-07T08:18:47.675Z,10.75
2022-09-07T08:22:54.385Z,11.95
2022-09-07T08:27:01.310Z,11.93
2022-09-07T08:31:13.736Z,9.93
2022-09-07T08:35:20.665Z,11.43
2022-09-07T08:39:27.437Z,12.38
2022-09-07T08:43:52.103Z,14.70
2022-09-07T08:47:59.157Z,11.82
2022-09-07T08:52:16.539Z,14.85
2022-09-07T08:56:33.595Z,13.13
2022-09-07T09:00:40.645Z,9.50
2022-09-07T09:09:54.481Z,10.43
2022-09-07T09:14:22.838Z,12.25
2022-09-07T09:18:50.307Z,9.05
2022-09-07T09:23:10.089Z,12.15
2022-09-07T09:27:17.026Z,8.40
2022-09-07T09:31:32.936Z,14.38
2022-09-07T09:35:40.922Z,12.55
2022-09-07T09:40:00.649Z,14.05
2022-09-07T09:44:16.018Z,11.93
2022-09-07T09:48:33.645Z,8.27
2022-09-07T09:52:49.382Z,9.30
2022-09-07T09:56:58.494Z,10.10
2022-09-07T10:01:24.872Z,7.93
2022-09-07T10:05:39.247Z,9.55
2022-09-07T10:09:51.743Z,8.18
2022-09-07T10:13:58.600Z,6.68
2022-09-07T10:18:06.927Z,6.50
2022-09-07T10:22:32.186Z,6.68
2022-09-07T10:26:40.229Z,6.75
2022-09-07T10:31:02.668Z,6.00
2022-09-07T10:35:38.003Z,6.93
2022-09-07T10:40:16.457Z,4.93
2022-09-07T10:44:46.203Z,5.22
2022-09-07T10:49:12.715Z,5.13
2022-09-07T10:54:29.400Z,9.63
2022-09-07T11:02:20.607Z,4.35
2022-09-07T11:06:39.431Z,3.30
2022-09-07T11:11:07.553Z,4.32
2022-09-07T11:15:14.189Z,3.22
2022-09-07T11:19:36.529Z,1.58
2022-09-07T11:23:53.715Z,2.13
2022-09-07T11:28:22.484Z,4.85
2022-09-07T11:32:37.979Z,1.58
2022-09-07T11:36:53.690Z,3.17
2022-09-07T11:41:15.983Z,4.28
2022-09-07T11:45:25.733Z,6.43
2022-09-07T11:49:32.657Z,0.90
2022-09-07T11:53:45.412Z,2.28
2022-09-07T11:58:37.543Z,3.72
2022-09-07T12:03:02.153Z,1.30
2022-09-07T12:07:37.063Z,3.03
2022-09-07T12:12:08.499Z,2.08
2022-09-07T12:20:43.780Z,2.55
2022-09-07T12:24:54.192Z,2.38
2022-09-07T12:29:00.940Z,1.53
2022-09-07T12:33:22.148Z,2.35
2022-09-07T12:37:40.396Z,5.55
2022-09-07T12:46:35.418Z,1.80
2022-09-07T12:51:09.755Z,1.02
2022-09-07T12:56:15.494Z,1.75
2022-09-07T13:00:11.507Z,1.85
2022-09-07T13:04:34.304Z,4.43
2022-09-07T13:09:06.249Z,1.33
2022-09-07T13:13:16.145Z,1.92
2022-09-07T13:17:33.031Z,5.55
2022-09-07T13:21:48.804Z,2.97
2022-09-07T13:25:57.389Z,6.47
2022-09-07T13:30:16.697Z,3.90
2022-09-07T13:34:59.375Z,1.80
2022-09-07T13:39:15.384Z,2.20
2022-09-07T13:43:24.428Z,2.75
2022-09-07T13:47:31.069Z,2.65
2022-09-07T13:52:07.850Z,4.03
2022-09-07T13:56:24.356Z,1.23
2022-09-07T14:00:31.287Z,3.30
2022-09-07T14:04:42.251Z,4.10
2022-09-07T14:08:54.335Z,2.40
2022-09-07T14:13:11.647Z,3.15
2022-09-07T14:17:19.393Z,1.27
2022-09-07T14:21:26.153Z,2.70
2022-09-07T14:26:16.002Z,6.15
2022-09-07T14:30:23.886Z,6.55
2022-09-07T14:34:36.304Z,6.32
2022-09-07T14:43:33.092Z,7.55
2022-09-07T14:47:40.649Z,3.60
2022-09-07T14:51:48.574Z,2.00
2022-09-07T14:56:08.219Z,3.67
2022-09-07T15:00:20.925Z,2.13
2022-09-07T15:04:28.433Z,2.00
2022-09-07T15:08:45.503Z,5.35
2022-09-07T15:12:55.310Z,1.67
2022-09-07T15:21:30.764Z,3.67
2022-09-07T15:25:37.903Z,4.88
2022-09-07T15:29:44.593Z,3.03
2022-09-07T15:33:51.277Z,3.80
2022-09-07T15:38:02.444Z,2.95
2022-09-07T15:46:38.429Z,1.42
2022-09-07T15:50:45.439Z,3.05
2022-09-07T15:54:52.144Z,2.55
2022-09-07T15:58:58.866Z,4.15
2022-09-07T16:03:06.755Z,4.53
2022-09-07T16:07:14.425Z,2.47
2022-09-07T16:11:24.272Z,2.80
2022-09-07T16:15:32.001Z,3.78
2022-09-07T16:19:40.970Z,2.80
2022-09-07T16:23:50.984Z,2.15
2022-09-07T16:27:58.064Z,3.20
2022-09-07T16:36:32.067Z,3.13
2022-09-07T16:40:42.883Z,1.67
2022-09-07T16:44:51.971Z,4.72
2022-09-07T16:48:58.852Z,4.10
2022-09-07T16:53:05.572Z,3.33
2022-09-07T16:57:14.509Z,5.75
2022-09-07T17:01:26.091Z,1.85
2022-09-07T17:05:32.837Z,1.95
2022-09-07T17:09:41.186Z,3.83
2022-09-07T17:13:48.300Z,2.75
2022-09-07T17:17:55.034Z,4.78
2022-09-07T17:22:02.854Z,4.10
2022-09-07T17:26:18.012Z,3.08
2022-09-07T17:30:24.946Z,4.03
2022-09-07T17:34:31.914Z,3.38
2022-09-07T17:47:33.638Z,6.20
2022-09-07T17:51:40.494Z,4.53
2022-09-07T17:55:47.262Z,4.07
2022-09-07T18:00:11.131Z,3.25
2022-09-07T18:04:18.524Z,6.15
2022-09-07T18:08:25.899Z,5.00
2022-09-07T18:12:32.888Z,4.53
2022-09-07T18:16:40.383Z,1.20
2022-09-07T18:20:47.685Z,4.07
2022-09-07T18:24:54.336Z,2.63
2022-09-07T18:29:08.376Z,6.75
2022-09-07T18:33:20.235Z,4.03
2022-09-07T18:37:26.948Z,4.32
2022-09-07T18:41:34.681Z,7.03
2022-09-07T18:45:41.387Z,3.60
2022-09-07T18:49:48.133Z,2.22
2022-09-07T18:53:55.543Z,3.42
2022-09-07T18:58:03.048Z,4.90
2022-09-07T19:02:10.721Z,2.88
2022-09-07T19:06:17.560Z,6.25
2022-09-07T19:10:24.249Z,4.68
2022-09-07T19:14:31.207Z,2.13
2022-09-07T19:18:39.323Z,5.35
2022-09-07T19:22:46.057Z,5.28
2022-09-07T19:26:56.837Z,4.13
2022-09-07T19:31:07.229Z,4.57
2022-09-07T19:35:14.156Z,2.75
2022-09-07T19:39:20.839Z,3.28
2022-09-07T19:43:32.972Z,5.90
2022-09-07T19:47:39.689Z,2.63
2022-09-07T19:51:49.395Z,4.53
2022-09-07T19:56:06.437Z,3.03
2022-09-07T20:00:13.965Z,10.63
2022-09-07T20:04:23.367Z,2.97
2022-09-07T20:08:30.149Z,5.57
2022-09-07T20:12:36.834Z,3.85
2022-09-07T20:16:44.123Z,5.18
2022-09-07T20:20:50.919Z,3.30
2022-09-07T20:24:57.597Z,7.28
2022-09-07T20:29:26.862Z,10.23
2022-09-07T20:33:31.900Z,5.50
2022-09-07T20:37:38.657Z,5.55
2022-09-07T20:41:45.436Z,6.30
2022-09-07T20:45:57.165Z,7.63
2022-09-07T20:50:04.108Z,7.55
2022-09-07T20:54:11.113Z,3.15
2022-09-07T20:58:17.796Z,9.75
2022-09-07T21:02:24.603Z,6.20
2022-09-07T21:06:32.008Z,5.28
2022-09-07T21:10:39.838Z,5.78
2022-09-07T21:14:46.873Z,3.97
2022-09-07T21:18:59.694Z,7.82
2022-09-07T21:23:06.402Z,5.07
2022-09-07T21:27:13.213Z,3.05
2022-09-07T21:31:20.055Z,7.28
2022-09-07T21:35:26.843Z,4.75
2022-09-07T21:39:33.542Z,2.60
2022-09-07T21:43:41.080Z,7.97
2022-09-07T21:47:47.776Z,7.18
2022-09-07T21:51:54.479Z,4.55
2022-09-07T21:56:03.334Z,5.07
2022-09-07T22:00:12.104Z,3.72
2022-09-07T22:04:18.896Z,2.85
2022-09-07T22:08:25.619Z,6.25
2022-09-07T22:12:32.405Z,8.30
2022-09-07T22:16:39.164Z,7.22
2022-09-07T22:20:45.859Z,4.72
2022-09-07T22:24:52.552Z,6.22
2022-09-07T22:28:59.841Z,9.77
2022-09-07T22:33:06.526Z,7.15
2022-09-07T22:37:13.225Z,6.05
2022-09-07T22:41:25.780Z,4.43
2022-09-07T22:45:32.606Z,8.65
2022-09-07T22:49:39.292Z,5.72
2022-09-07T22:53:45.977Z,4.53
2022-09-07T22:57:52.619Z,4.15
2022-09-07T23:01:59.720Z,9.80
2022-09-07T23:06:06.437Z,9.55
2022-09-07T23:10:13.148Z,5.47
2022-09-07T23:14:22.135Z,6.25
2022-09-07T23:18:28.886Z,8.45
2022-09-07T23:22:35.551Z,6.95
2022-09-07T23:26:42.921Z,5.88
2022-09-07T23:30:51.842Z,6.30
2022-09-07T23:34:59.144Z,8.70
2022-09-07T23:39:05.876Z,5.35
2022-09-07T23:43:13.095Z,7.25
2022-09-07T23:47:19.772Z,4.38
2022-09-07T23:51:26.527Z,4.38
2022-09-07T23:55:33.215Z,4.10
2022-09-07T23:59:39.896Z,10.30
